Here is the Quick Look data you requested

The Data originates at the National Weather Service, and is made available here by the UAlbany Department of Atmospheric and Environmental Sciences

Surface Observations

KDTW 181353Z 27003KT 10SM OVC025 01/M06 A2990 RMK AO2 SLP130 T00111056=
KDTW 181453Z 00000KT 10SM OVC025 02/M06 A2988 RMK AO2 SLP123 T00171056 58008=
KDTW 181553Z 00000KT 10SM OVC025 02/M05 A2988 RMK AO2 SLP122 T00221050=
KDTW 181653Z VRB03KT 10SM OVC025 02/M04 A2987 RMK AO2 SLP120 T00221044=
KDTW 181753Z VRB03KT 10SM BKN030 04/M03 A2985 RMK AO2 SLP115 T00441033 10044
 20006 58008=
KDTW 181853Z 00000KT 10SM SCT030 06/M03 A2984 RMK AO2 SLP110 T00611028=
KDTW 181953Z VRB03KT 10SM SCT035 07/M03 A2980 RMK AO2 SLP095 T00671028=
KDTW 182053Z 06008KT 9SM FEW035 BKN120 07/M03 A2979 RMK AO2 SLP091 T00671028
 58022=
KDTW 182153Z 08009KT 10SM FEW031 OVC080 06/M03 A2979 RMK AO2 SLP092 T00561028=
KDTW 182253Z 11007KT 7SM -RA OVC070 04/M03 A2986 RMK AO2 RAB19 PRESRR SLP116
 T00391028 PNO $=
KDTW 182353Z 06008KT 7SM -SNRA FEW035 OVC060 03/M02 A2983 RMK AO2 SNB36 SLP108
 P0001 60001 T00331017 10078 20033 50015 $=
KDTW 190053Z 05010KT 9SM FEW035 OVC060 03/M01 A2981 RMK AO2 RAE36SNE2355 SLP102
 P0000 T00331011 $=
KDTW 190153Z 03014KT 9SM FEW015 OVC045 03/M01 A2983 RMK AO2 SLP106 T00281011 $=
KDTW 190253Z 03010KT 10SM SCT015 OVC045 02/M02 A2983 RMK AO2 SLP107 60000
 T00221022 55000 $=
KDTW 190353Z 02008KT 10SM FEW015 OVC045 02/M03 A2984 RMK AO2 SLP110 T00171028 $=
KDTW 190453Z 01009KT 10SM SCT012 OVC035 02/M03 A2987 RMK AO2 SLP120 T00171028
 400780006 $=
KDTW 190501Z 36011KT 10SM BKN012 OVC020 02/M03 A2987 RMK AO2 T00171028 $=
KDTW 190544Z 01010KT 10SM SCT012 BKN020 OVC045 02/M04 A2987 RMK AO2 T00171039 $=
KDTW 190553Z 02011KT 10SM SCT012 BKN020 OVC045 02/M04 A2987 RMK AO2 SLP118
 60000 T00171039 10033 20017 50011 $=
KDTW 190621Z 01008KT 10SM SCT020 OVC050 02/M04 A2986 RMK AO2 T00171039 $=
KDTW 190653Z 01011KT 10SM SCT020 OVC050 02/M04 A2986 RMK AO2 SLP116 T00171039 $=
KDTW 190753Z 35009KT 10SM SCT035 OVC050 02/M04 A2988 RMK AO2 SLP123 T00171039 $=
KDTW 190853Z 35008KT 10SM SCT035 OVC050 02/M03 A2991 RMK AO2 SLP133 T00171033
 53015 $=
KDTW 190953Z 32007KT 10SM SCT030 OVC055 02/M03 A2994 RMK AO2 SLP144 T00171033 $=
KDTW 191053Z 32008KT 10SM OVC045 02/M03 A2998 RMK AO2 SLP157 T00171033 $=
KDTW 191153Z 35010KT 10SM BKN045 OVC170 03/M04 A3002 RMK AO2 SLP171 70001
 T00281039 10028 20017 53037 $=
KDTW 191253Z 34012KT 10SM FEW045 SCT170 04/M04 A3005 RMK AO2 SLP180 T00391044 $=
KDTW 191353Z 36011KT 10SM FEW040 05/M05 A3007 RMK AO2 SLP188 T00501050 $=
KDTW 191453Z 29013KT 10SM FEW045 06/M04 A3010 RMK AO2 SLP198 T00611044 51026=
KDTW 191553Z 31013KT 10SM FEW045 08/M04 A3012 RMK AO2 SLP205 T00781039=
KDTW 191653Z 32016G20KT 10SM CLR 09/M05 A3013 RMK AO2 SLP207 T00891050=
KDTW 191753Z 30020G25KT 10SM CLR 10/M06 A3014 RMK AO2 PK WND 33026/1709 SLP209
 T01001061 10106 20028 51012=
KDTW 191853Z 30015KT 10SM CLR 11/M05 A3015 RMK AO2 PK WND 33034/1846 SLP212
 T01111050=
KDTW 191953Z 30018G26KT 10SM CLR 12/M06 A3015 RMK AO2 PK WND 31026/1948 SLP213
 T01171056=
KDTW 192053Z 34014G22KT 300V010 10SM CLR 13/M07 A3016 RMK AO2 PK WND 32029/2039
 SLP216 T01281067 51008=
KDTW 192153Z 34011G23KT 10SM CLR 13/M07 A3017 RMK AO2 SLP221 T01281072=
KDTW 192253Z 34016G20KT 10SM CLR 12/M09 A3020 RMK AO2 SLP231 T01171094=
KDTW 192353Z 34010G18KT 10SM CLR 11/M09 A3023 RMK AO2 SLP241 T01061089 10128
 20100 53024=
KDTW 200053Z 12004KT 10SM CLR 06/M02 A3028 RMK AO2 PRESRR SLP257 T00561017=
KDTW 200153Z 12004KT 10SM CLR 04/M02 A3031 RMK AO2 SLP269 T00391022=